sensor_id;sensor_type;location;lat;lon;timestamp;P1;durP1;ratioP1;P2;durP2;ratioP2
14078;SDS011;7115;50.150;8.568;2022-09-13T00:00:56;4.67;;;4.27;;
14078;SDS011;7115;50.150;8.568;2022-09-13T00:03:24;5.97;;;4.53;;
14078;SDS011;7115;50.150;8.568;2022-09-13T00:05:51;8.47;;;4.13;;
14078;SDS011;7115;50.150;8.568;2022-09-13T00:08:18;6.00;;;3.93;;
14078;SDS011;7115;50.150;8.568;2022-09-13T00:10:45;5.33;;;4.80;;
14078;SDS011;7115;50.150;8.568;2022-09-13T00:13:13;6.43;;;4.90;;
14078;SDS011;7115;50.150;8.568;2022-09-13T00:15:45;6.87;;;5.00;;
14078;SDS011;7115;50.150;8.568;2022-09-13T00:18:14;8.10;;;4.80;;
14078;SDS011;7115;50.150;8.568;2022-09-13T00:20:42;6.20;;;5.27;;
14078;SDS011;7115;50.150;8.568;2022-09-13T00:23:09;6.20;;;5.03;;
14078;SDS011;7115;50.150;8.568;2022-09-13T00:25:36;7.13;;;4.60;;
14078;SDS011;7115;50.150;8.568;2022-09-13T00:28:03;7.00;;;5.50;;
14078;SDS011;7115;50.150;8.568;2022-09-13T00:30:30;6.10;;;5.20;;
14078;SDS011;7115;50.150;8.568;2022-09-13T00:32:57;6.73;;;4.87;;
14078;SDS011;7115;50.150;8.568;2022-09-13T00:35:24;7.43;;;5.70;;
14078;SDS011;7115;50.150;8.568;2022-09-13T00:37:51;5.87;;;4.70;;
14078;SDS011;7115;50.150;8.568;2022-09-13T00:40:17;5.80;;;4.97;;
14078;SDS011;7115;50.150;8.568;2022-09-13T00:42:47;7.47;;;4.70;;
14078;SDS011;7115;50.150;8.568;2022-09-13T00:45:17;7.97;;;5.47;;
14078;SDS011;7115;50.150;8.568;2022-09-13T00:50:38;6.20;;;4.73;;
14078;SDS011;7115;50.150;8.568;2022-09-13T00:53:11;8.40;;;5.17;;
14078;SDS011;7115;50.150;8.568;2022-09-13T00:55:43;8.10;;;5.27;;
14078;SDS011;7115;50.150;8.568;2022-09-13T00:58:21;6.97;;;5.03;;
14078;SDS011;7115;50.150;8.568;2022-09-13T01:00:55;5.20;;;4.70;;
14078;SDS011;7115;50.150;8.568;2022-09-13T01:03:25;6.13;;;5.07;;
14078;SDS011;7115;50.150;8.568;2022-09-13T01:05:59;5.93;;;5.13;;
14078;SDS011;7115;50.150;8.568;2022-09-13T01:08:31;6.23;;;4.97;;
14078;SDS011;7115;50.150;8.568;2022-09-13T01:10:59;8.80;;;4.90;;
14078;SDS011;7115;50.150;8.568;2022-09-13T01:13:28;5.80;;;5.10;;
14078;SDS011;7115;50.150;8.568;2022-09-13T01:15:57;8.20;;;5.10;;
14078;SDS011;7115;50.150;8.568;2022-09-13T01:18:25;7.70;;;4.93;;
14078;SDS011;7115;50.150;8.568;2022-09-13T01:40:01;6.20;;;4.50;;
14078;SDS011;7115;50.150;8.568;2022-09-13T01:48:28;8.27;;;5.43;;
14078;SDS011;7115;50.150;8.568;2022-09-13T01:51:03;8.40;;;5.73;;
14078;SDS011;7115;50.150;8.568;2022-09-13T01:56:10;11.17;;;6.10;;
14078;SDS011;7115;50.150;8.568;2022-09-13T01:59:51;8.80;;;6.00;;
14078;SDS011;7115;50.150;8.568;2022-09-13T02:02:32;6.43;;;4.50;;
14078;SDS011;7115;50.150;8.568;2022-09-13T02:05:23;4.30;;;3.53;;
14078;SDS011;7115;50.150;8.568;2022-09-13T02:08:05;7.60;;;3.90;;
14078;SDS011;7115;50.150;8.568;2022-09-13T02:10:43;5.13;;;4.10;;
14078;SDS011;7115;50.150;8.568;2022-09-13T02:13:25;6.80;;;4.53;;
14078;SDS011;7115;50.150;8.568;2022-09-13T02:15:58;5.90;;;4.70;;
14078;SDS011;7115;50.150;8.568;2022-09-13T02:18:36;7.50;;;4.63;;
14078;SDS011;7115;50.150;8.568;2022-09-13T02:21:07;6.13;;;4.73;;
14078;SDS011;7115;50.150;8.568;2022-09-13T02:23:41;6.83;;;4.33;;
14078;SDS011;7115;50.150;8.568;2022-09-13T02:26:13;6.40;;;4.90;;
14078;SDS011;7115;50.150;8.568;2022-09-13T02:28:42;5.10;;;4.47;;
14078;SDS011;7115;50.150;8.568;2022-09-13T02:31:16;8.70;;;4.20;;
14078;SDS011;7115;50.150;8.568;2022-09-13T02:33:50;4.97;;;3.87;;
14078;SDS011;7115;50.150;8.568;2022-09-13T02:36:23;5.10;;;4.53;;
14078;SDS011;7115;50.150;8.568;2022-09-13T02:39:01;6.87;;;4.20;;
14078;SDS011;7115;50.150;8.568;2022-09-13T02:47:22;4.37;;;3.97;;
14078;SDS011;7115;50.150;8.568;2022-09-13T02:55:24;6.53;;;4.03;;
14078;SDS011;7115;50.150;8.568;2022-09-13T03:00:52;5.10;;;3.57;;
14078;SDS011;7115;50.150;8.568;2022-09-13T03:03:19;5.33;;;3.73;;
14078;SDS011;7115;50.150;8.568;2022-09-13T03:05:46;5.33;;;3.83;;
14078;SDS011;7115;50.150;8.568;2022-09-13T03:08:13;5.23;;;3.80;;
14078;SDS011;7115;50.150;8.568;2022-09-13T03:10:47;4.70;;;3.70;;
14078;SDS011;7115;50.150;8.568;2022-09-13T03:30:52;5.70;;;3.70;;
14078;SDS011;7115;50.150;8.568;2022-09-13T03:36:25;6.10;;;4.03;;
14078;SDS011;7115;50.150;8.568;2022-09-13T03:41:41;4.03;;;3.60;;
14078;SDS011;7115;50.150;8.568;2022-09-13T03:44:12;7.57;;;4.37;;
14078;SDS011;7115;50.150;8.568;2022-09-13T03:46:42;4.20;;;3.80;;
14078;SDS011;7115;50.150;8.568;2022-09-13T03:49:15;6.20;;;3.67;;
14078;SDS011;7115;50.150;8.568;2022-09-13T03:51:45;3.70;;;3.40;;
14078;SDS011;7115;50.150;8.568;2022-09-13T03:54:19;7.67;;;3.57;;
14078;SDS011;7115;50.150;8.568;2022-09-13T03:57:05;4.37;;;3.50;;
14078;SDS011;7115;50.150;8.568;2022-09-13T04:00:02;6.03;;;3.90;;
14078;SDS011;7115;50.150;8.568;2022-09-13T04:02:29;6.47;;;3.93;;
14078;SDS011;7115;50.150;8.568;2022-09-13T04:04:56;6.80;;;3.70;;
14078;SDS011;7115;50.150;8.568;2022-09-13T04:07:23;4.47;;;3.30;;
14078;SDS011;7115;50.150;8.568;2022-09-13T04:09:50;8.63;;;3.50;;
14078;SDS011;7115;50.150;8.568;2022-09-13T04:12:17;5.57;;;3.83;;
14078;SDS011;7115;50.150;8.568;2022-09-13T04:14:44;4.77;;;3.80;;
14078;SDS011;7115;50.150;8.568;2022-09-13T04:17:11;4.90;;;4.00;;
14078;SDS011;7115;50.150;8.568;2022-09-13T04:19:39;5.33;;;4.00;;
14078;SDS011;7115;50.150;8.568;2022-09-13T04:22:06;4.90;;;4.37;;
14078;SDS011;7115;50.150;8.568;2022-09-13T04:24:33;5.07;;;3.93;;
14078;SDS011;7115;50.150;8.568;2022-09-13T04:27:01;5.43;;;4.13;;
14078;SDS011;7115;50.150;8.568;2022-09-13T04:29:28;6.90;;;4.30;;
14078;SDS011;7115;50.150;8.568;2022-09-13T04:31:56;9.13;;;4.40;;
14078;SDS011;7115;50.150;8.568;2022-09-13T04:34:24;7.37;;;5.53;;
14078;SDS011;7115;50.150;8.568;2022-09-13T04:36:51;8.73;;;6.40;;
14078;SDS011;7115;50.150;8.568;2022-09-13T04:39:19;6.57;;;5.20;;
14078;SDS011;7115;50.150;8.568;2022-09-13T04:41:46;10.13;;;5.50;;
14078;SDS011;7115;50.150;8.568;2022-09-13T04:44:14;6.83;;;5.47;;
14078;SDS011;7115;50.150;8.568;2022-09-13T04:46:43;6.03;;;5.10;;
14078;SDS011;7115;50.150;8.568;2022-09-13T04:49:13;6.03;;;4.67;;
14078;SDS011;7115;50.150;8.568;2022-09-13T04:51:41;5.07;;;4.37;;
14078;SDS011;7115;50.150;8.568;2022-09-13T04:54:08;9.83;;;6.60;;
14078;SDS011;7115;50.150;8.568;2022-09-13T04:56:40;8.43;;;5.03;;
14078;SDS011;7115;50.150;8.568;2022-09-13T04:59:08;5.83;;;4.03;;
14078;SDS011;7115;50.150;8.568;2022-09-13T05:01:36;9.50;;;4.50;;
14078;SDS011;7115;50.150;8.568;2022-09-13T05:04:04;5.37;;;4.07;;
14078;SDS011;7115;50.150;8.568;2022-09-13T05:06:31;6.27;;;4.70;;
14078;SDS011;7115;50.150;8.568;2022-09-13T05:08:59;5.57;;;4.30;;
14078;SDS011;7115;50.150;8.568;2022-09-13T05:11:26;5.77;;;4.47;;
14078;SDS011;7115;50.150;8.568;2022-09-13T05:13:57;5.57;;;4.50;;
14078;SDS011;7115;50.150;8.568;2022-09-13T05:16:29;9.10;;;4.93;;
14078;SDS011;7115;50.150;8.568;2022-09-13T05:18:58;5.50;;;4.83;;
14078;SDS011;7115;50.150;8.568;2022-09-13T05:21:26;5.57;;;4.93;;
14078;SDS011;7115;50.150;8.568;2022-09-13T05:23:56;6.37;;;4.40;;
14078;SDS011;7115;50.150;8.568;2022-09-13T05:26:24;6.23;;;5.03;;
14078;SDS011;7115;50.150;8.568;2022-09-13T05:28:54;7.47;;;4.73;;
14078;SDS011;7115;50.150;8.568;2022-09-13T05:31:25;8.90;;;4.50;;
14078;SDS011;7115;50.150;8.568;2022-09-13T05:34:00;6.83;;;4.50;;
14078;SDS011;7115;50.150;8.568;2022-09-13T05:36:29;6.67;;;4.43;;
14078;SDS011;7115;50.150;8.568;2022-09-13T05:38:56;5.53;;;4.43;;
14078;SDS011;7115;50.150;8.568;2022-09-13T05:41:43;5.90;;;4.37;;
14078;SDS011;7115;50.150;8.568;2022-09-13T05:44:11;7.03;;;5.40;;
14078;SDS011;7115;50.150;8.568;2022-09-13T05:46:39;8.53;;;4.70;;
14078;SDS011;7115;50.150;8.568;2022-09-13T05:49:07;6.67;;;4.80;;
14078;SDS011;7115;50.150;8.568;2022-09-13T05:51:34;5.53;;;4.20;;
14078;SDS011;7115;50.150;8.568;2022-09-13T05:54:01;6.13;;;4.60;;
14078;SDS011;7115;50.150;8.568;2022-09-13T05:56:28;6.67;;;5.23;;
14078;SDS011;7115;50.150;8.568;2022-09-13T05:58:56;7.27;;;5.10;;
14078;SDS011;7115;50.150;8.568;2022-09-13T06:01:24;8.33;;;5.87;;
14078;SDS011;7115;50.150;8.568;2022-09-13T06:03:54;9.20;;;5.90;;
14078;SDS011;7115;50.150;8.568;2022-09-13T06:06:22;9.17;;;4.73;;
14078;SDS011;7115;50.150;8.568;2022-09-13T06:08:54;6.00;;;5.23;;
14078;SDS011;7115;50.150;8.568;2022-09-13T06:11:22;6.80;;;5.30;;
14078;SDS011;7115;50.150;8.568;2022-09-13T06:13:51;10.80;;;7.20;;
14078;SDS011;7115;50.150;8.568;2022-09-13T06:16:18;10.37;;;6.53;;
14078;SDS011;7115;50.150;8.568;2022-09-13T06:18:46;11.03;;;7.57;;
14078;SDS011;7115;50.150;8.568;2022-09-13T06:21:15;10.70;;;7.43;;
14078;SDS011;7115;50.150;8.568;2022-09-13T06:23:54;15.23;;;7.67;;
14078;SDS011;7115;50.150;8.568;2022-09-13T06:26:22;9.93;;;7.20;;
14078;SDS011;7115;50.150;8.568;2022-09-13T06:28:51;7.07;;;6.10;;
14078;SDS011;7115;50.150;8.568;2022-09-13T06:31:20;9.40;;;6.73;;
14078;SDS011;7115;50.150;8.568;2022-09-13T06:33:48;11.40;;;7.00;;
14078;SDS011;7115;50.150;8.568;2022-09-13T06:36:19;15.33;;;7.50;;
14078;SDS011;7115;50.150;8.568;2022-09-13T06:38:46;9.10;;;7.33;;
14078;SDS011;7115;50.150;8.568;2022-09-13T06:41:17;10.47;;;7.17;;
14078;SDS011;7115;50.150;8.568;2022-09-13T06:43:55;9.47;;;6.30;;
14078;SDS011;7115;50.150;8.568;2022-09-13T06:46:24;13.33;;;8.00;;
14078;SDS011;7115;50.150;8.568;2022-09-13T06:48:52;9.60;;;7.63;;
14078;SDS011;7115;50.150;8.568;2022-09-13T06:51:21;11.03;;;7.90;;
14078;SDS011;7115;50.150;8.568;2022-09-13T06:53:50;13.03;;;7.70;;
14078;SDS011;7115;50.150;8.568;2022-09-13T06:58:50;10.17;;;7.27;;
14078;SDS011;7115;50.150;8.568;2022-09-13T07:01:20;11.33;;;7.53;;
14078;SDS011;7115;50.150;8.568;2022-09-13T07:03:50;10.23;;;7.73;;
14078;SDS011;7115;50.150;8.568;2022-09-13T07:06:20;8.30;;;7.40;;
14078;SDS011;7115;50.150;8.568;2022-09-13T07:08:49;9.30;;;7.47;;
14078;SDS011;7115;50.150;8.568;2022-09-13T07:11:18;9.67;;;7.13;;
14078;SDS011;7115;50.150;8.568;2022-09-13T07:13:50;12.87;;;7.97;;
14078;SDS011;7115;50.150;8.568;2022-09-13T07:16:20;10.77;;;7.67;;
14078;SDS011;7115;50.150;8.568;2022-09-13T07:18:50;10.00;;;7.13;;
14078;SDS011;7115;50.150;8.568;2022-09-13T07:21:18;11.00;;;7.47;;
14078;SDS011;7115;50.150;8.568;2022-09-13T07:23:45;10.70;;;7.57;;
14078;SDS011;7115;50.150;8.568;2022-09-13T07:26:12;8.83;;;7.03;;
14078;SDS011;7115;50.150;8.568;2022-09-13T07:28:41;8.70;;;6.73;;
14078;SDS011;7115;50.150;8.568;2022-09-13T07:31:16;12.73;;;7.67;;
14078;SDS011;7115;50.150;8.568;2022-09-13T07:33:46;10.70;;;7.07;;
14078;SDS011;7115;50.150;8.568;2022-09-13T07:36:14;13.17;;;9.97;;
14078;SDS011;7115;50.150;8.568;2022-09-13T07:38:41;10.57;;;7.83;;
14078;SDS011;7115;50.150;8.568;2022-09-13T07:41:11;9.80;;;7.77;;
14078;SDS011;7115;50.150;8.568;2022-09-13T07:43:40;9.53;;;7.83;;
14078;SDS011;7115;50.150;8.568;2022-09-13T07:46:11;10.07;;;8.20;;
14078;SDS011;7115;50.150;8.568;2022-09-13T07:48:43;12.10;;;8.47;;
14078;SDS011;7115;50.150;8.568;2022-09-13T07:51:12;14.90;;;7.47;;
14078;SDS011;7115;50.150;8.568;2022-09-13T07:53:41;11.27;;;7.07;;
14078;SDS011;7115;50.150;8.568;2022-09-13T07:56:10;11.37;;;7.67;;
14078;SDS011;7115;50.150;8.568;2022-09-13T07:58:40;13.33;;;7.60;;
14078;SDS011;7115;50.150;8.568;2022-09-13T08:01:10;8.20;;;7.10;;
14078;SDS011;7115;50.150;8.568;2022-09-13T08:03:43;11.70;;;6.90;;
14078;SDS011;7115;50.150;8.568;2022-09-13T08:06:10;10.73;;;6.87;;
14078;SDS011;7115;50.150;8.568;2022-09-13T08:08:37;12.20;;;7.33;;
14078;SDS011;7115;50.150;8.568;2022-09-13T08:11:05;10.77;;;7.67;;
14078;SDS011;7115;50.150;8.568;2022-09-13T08:13:32;12.60;;;6.97;;
14078;SDS011;7115;50.150;8.568;2022-09-13T08:16:00;10.87;;;7.43;;
14078;SDS011;7115;50.150;8.568;2022-09-13T08:18:28;8.90;;;6.83;;
14078;SDS011;7115;50.150;8.568;2022-09-13T08:20:56;13.67;;;6.63;;
14078;SDS011;7115;50.150;8.568;2022-09-13T08:23:24;10.80;;;7.30;;
14078;SDS011;7115;50.150;8.568;2022-09-13T08:25:51;9.27;;;7.77;;
14078;SDS011;7115;50.150;8.568;2022-09-13T08:28:19;8.90;;;7.20;;
14078;SDS011;7115;50.150;8.568;2022-09-13T08:30:52;7.73;;;6.30;;
14078;SDS011;7115;50.150;8.568;2022-09-13T08:33:19;13.27;;;6.87;;
14078;SDS011;7115;50.150;8.568;2022-09-13T08:35:50;10.33;;;7.20;;
14078;SDS011;7115;50.150;8.568;2022-09-13T08:38:18;12.20;;;8.00;;
14078;SDS011;7115;50.150;8.568;2022-09-13T08:40:55;7.93;;;6.70;;
14078;SDS011;7115;50.150;8.568;2022-09-13T08:43:33;9.83;;;6.57;;
14078;SDS011;7115;50.150;8.568;2022-09-13T08:46:42;9.47;;;6.20;;
14078;SDS011;7115;50.150;8.568;2022-09-13T08:49:13;8.87;;;7.17;;
14078;SDS011;7115;50.150;8.568;2022-09-13T08:51:55;12.03;;;7.00;;
14078;SDS011;7115;50.150;8.568;2022-09-13T08:54:25;9.90;;;6.70;;
14078;SDS011;7115;50.150;8.568;2022-09-13T09:02:34;8.67;;;6.57;;
14078;SDS011;7115;50.150;8.568;2022-09-13T09:05:17;11.93;;;7.10;;
14078;SDS011;7115;50.150;8.568;2022-09-13T09:10:27;10.37;;;6.60;;
14078;SDS011;7115;50.150;8.568;2022-09-13T09:13:26;10.00;;;6.47;;
14078;SDS011;7115;50.150;8.568;2022-09-13T09:16:40;9.63;;;6.70;;
14078;SDS011;7115;50.150;8.568;2022-09-13T09:18:46;11.67;;;7.03;;
14078;SDS011;7115;50.150;8.568;2022-09-13T09:21:15;9.97;;;7.10;;
14078;SDS011;7115;50.150;8.568;2022-09-13T09:23:53;10.73;;;7.73;;
14078;SDS011;7115;50.150;8.568;2022-09-13T09:28:49;9.77;;;7.87;;
14078;SDS011;7115;50.150;8.568;2022-09-13T09:31:24;13.43;;;8.63;;
14078;SDS011;7115;50.150;8.568;2022-09-13T09:37:06;18.17;;;8.77;;
14078;SDS011;7115;50.150;8.568;2022-09-13T09:39:39;14.37;;;8.40;;
14078;SDS011;7115;50.150;8.568;2022-09-13T09:42:41;13.60;;;9.37;;
14078;SDS011;7115;50.150;8.568;2022-09-13T09:45:17;12.87;;;8.70;;
14078;SDS011;7115;50.150;8.568;2022-09-13T09:47:51;13.20;;;8.47;;
14078;SDS011;7115;50.150;8.568;2022-09-13T09:50:23;19.50;;;9.20;;
14078;SDS011;7115;50.150;8.568;2022-09-13T09:55:30;17.57;;;9.77;;
14078;SDS011;7115;50.150;8.568;2022-09-13T09:58:00;12.60;;;9.07;;
14078;SDS011;7115;50.150;8.568;2022-09-13T10:00:32;14.23;;;9.10;;
14078;SDS011;7115;50.150;8.568;2022-09-13T10:03:04;15.03;;;8.83;;
14078;SDS011;7115;50.150;8.568;2022-09-13T10:05:42;13.87;;;9.20;;
14078;SDS011;7115;50.150;8.568;2022-09-13T10:10:54;12.93;;;8.43;;
14078;SDS011;7115;50.150;8.568;2022-09-13T10:13:25;13.43;;;9.70;;
14078;SDS011;7115;50.150;8.568;2022-09-13T10:16:20;13.70;;;9.20;;
14078;SDS011;7115;50.150;8.568;2022-09-13T10:18:53;13.67;;;9.60;;
14078;SDS011;7115;50.150;8.568;2022-09-13T10:21:22;12.53;;;9.33;;
14078;SDS011;7115;50.150;8.568;2022-09-13T10:23:50;16.03;;;9.63;;
14078;SDS011;7115;50.150;8.568;2022-09-13T10:26:20;14.97;;;10.20;;
14078;SDS011;7115;50.150;8.568;2022-09-13T10:31:39;14.37;;;9.67;;
14078;SDS011;7115;50.150;8.568;2022-09-13T10:34:12;15.87;;;9.37;;
14078;SDS011;7115;50.150;8.568;2022-09-13T10:37:31;14.97;;;9.30;;
14078;SDS011;7115;50.150;8.568;2022-09-13T10:42:22;13.07;;;9.97;;
14078;SDS011;7115;50.150;8.568;2022-09-13T10:50:20;15.03;;;10.40;;
14078;SDS011;7115;50.150;8.568;2022-09-13T10:52:51;17.40;;;8.93;;
14078;SDS011;7115;50.150;8.568;2022-09-13T10:57:51;12.67;;;8.60;;
14078;SDS011;7115;50.150;8.568;2022-09-13T11:17:03;13.20;;;9.03;;
14078;SDS011;7115;50.150;8.568;2022-09-13T11:25:32;11.87;;;7.40;;
14078;SDS011;7115;50.150;8.568;2022-09-13T11:39:34;7.97;;;5.80;;
14078;SDS011;7115;50.150;8.568;2022-09-13T11:42:08;8.43;;;6.23;;
14078;SDS011;7115;50.150;8.568;2022-09-13T11:49:54;6.90;;;5.00;;
14078;SDS011;7115;50.150;8.568;2022-09-13T11:55:31;8.37;;;5.53;;
14078;SDS011;7115;50.150;8.568;2022-09-13T12:00:53;9.33;;;5.77;;
14078;SDS011;7115;50.150;8.568;2022-09-13T12:05:52;6.53;;;5.50;;
14078;SDS011;7115;50.150;8.568;2022-09-13T12:08:31;6.70;;;5.57;;
14078;SDS011;7115;50.150;8.568;2022-09-13T12:11:04;9.37;;;4.97;;
14078;SDS011;7115;50.150;8.568;2022-09-13T12:13:43;9.00;;;4.97;;
14078;SDS011;7115;50.150;8.568;2022-09-13T12:16:22;11.83;;;5.13;;
14078;SDS011;7115;50.150;8.568;2022-09-13T12:19:04;8.77;;;6.00;;
14078;SDS011;7115;50.150;8.568;2022-09-13T12:21:39;8.47;;;4.70;;
14078;SDS011;7115;50.150;8.568;2022-09-13T12:24:42;8.47;;;5.07;;
14078;SDS011;7115;50.150;8.568;2022-09-13T12:29:58;6.47;;;4.90;;
14078;SDS011;7115;50.150;8.568;2022-09-13T12:32:28;8.67;;;5.03;;
14078;SDS011;7115;50.150;8.568;2022-09-13T12:35:01;6.37;;;4.70;;
14078;SDS011;7115;50.150;8.568;2022-09-13T12:37:56;7.83;;;4.47;;
14078;SDS011;7115;50.150;8.568;2022-09-13T12:41:03;6.93;;;4.03;;
14078;SDS011;7115;50.150;8.568;2022-09-13T12:52:38;5.67;;;4.70;;
14078;SDS011;7115;50.150;8.568;2022-09-13T13:01:09;5.50;;;4.70;;
14078;SDS011;7115;50.150;8.568;2022-09-13T13:08:52;8.57;;;5.57;;
14078;SDS011;7115;50.150;8.568;2022-09-13T13:11:25;7.50;;;5.83;;
14078;SDS011;7115;50.150;8.568;2022-09-13T13:14:02;8.43;;;6.07;;
14078;SDS011;7115;50.150;8.568;2022-09-13T13:16:36;8.73;;;5.20;;
14078;SDS011;7115;50.150;8.568;2022-09-13T13:27:51;6.27;;;4.90;;
14078;SDS011;7115;50.150;8.568;2022-09-13T13:30:37;7.70;;;5.23;;
14078;SDS011;7115;50.150;8.568;2022-09-13T13:33:20;6.93;;;4.60;;
14078;SDS011;7115;50.150;8.568;2022-09-13T13:35:50;7.43;;;4.70;;
14078;SDS011;7115;50.150;8.568;2022-09-13T13:38:32;8.63;;;4.47;;
14078;SDS011;7115;50.150;8.568;2022-09-13T13:59:55;6.20;;;4.00;;
14078;SDS011;7115;50.150;8.568;2022-09-13T14:08:03;4.20;;;3.20;;
14078;SDS011;7115;50.150;8.568;2022-09-13T14:10:39;6.70;;;3.87;;
14078;SDS011;7115;50.150;8.568;2022-09-13T14:13:24;5.53;;;4.27;;
14078;SDS011;7115;50.150;8.568;2022-09-13T14:22:06;5.47;;;3.90;;
14078;SDS011;7115;50.150;8.568;2022-09-13T14:24:54;7.30;;;3.80;;
14078;SDS011;7115;50.150;8.568;2022-09-13T14:27:39;7.50;;;4.20;;
14078;SDS011;7115;50.150;8.568;2022-09-13T14:32:53;7.60;;;3.70;;
14078;SDS011;7115;50.150;8.568;2022-09-13T14:37:55;5.27;;;3.97;;
14078;SDS011;7115;50.150;8.568;2022-09-13T14:40:34;7.27;;;4.50;;
14078;SDS011;7115;50.150;8.568;2022-09-13T14:43:13;6.50;;;4.40;;
14078;SDS011;7115;50.150;8.568;2022-09-13T14:45:48;7.10;;;4.80;;
14078;SDS011;7115;50.150;8.568;2022-09-13T14:48:20;5.90;;;4.20;;
14078;SDS011;7115;50.150;8.568;2022-09-13T14:50:53;6.47;;;4.80;;
14078;SDS011;7115;50.150;8.568;2022-09-13T14:53:27;4.63;;;4.23;;
14078;SDS011;7115;50.150;8.568;2022-09-13T14:56:01;7.03;;;5.17;;
14078;SDS011;7115;50.150;8.568;2022-09-13T14:58:42;7.13;;;4.90;;
14078;SDS011;7115;50.150;8.568;2022-09-13T15:01:21;7.77;;;5.30;;
14078;SDS011;7115;50.150;8.568;2022-09-13T15:03:54;6.87;;;5.47;;
14078;SDS011;7115;50.150;8.568;2022-09-13T15:06:24;8.43;;;5.00;;
14078;SDS011;7115;50.150;8.568;2022-09-13T15:08:59;10.43;;;5.93;;
14078;SDS011;7115;50.150;8.568;2022-09-13T15:14:32;15.43;;;6.90;;
14078;SDS011;7115;50.150;8.568;2022-09-13T15:22:13;8.87;;;5.87;;
14078;SDS011;7115;50.150;8.568;2022-09-13T15:24:55;8.30;;;5.80;;
14078;SDS011;7115;50.150;8.568;2022-09-13T15:27:27;7.53;;;5.67;;
14078;SDS011;7115;50.150;8.568;2022-09-13T15:35:40;11.20;;;6.20;;
14078;SDS011;7115;50.150;8.568;2022-09-13T15:43:27;7.10;;;5.70;;
14078;SDS011;7115;50.150;8.568;2022-09-13T15:45:55;7.10;;;5.40;;
14078;SDS011;7115;50.150;8.568;2022-09-13T15:48:33;7.30;;;5.57;;
14078;SDS011;7115;50.150;8.568;2022-09-13T15:51:11;8.40;;;5.97;;
14078;SDS011;7115;50.150;8.568;2022-09-13T15:53:40;7.03;;;5.83;;
14078;SDS011;7115;50.150;8.568;2022-09-13T15:56:08;6.80;;;5.53;;
14078;SDS011;7115;50.150;8.568;2022-09-13T15:58:39;10.00;;;5.80;;
14078;SDS011;7115;50.150;8.568;2022-09-13T16:01:06;8.73;;;6.00;;
14078;SDS011;7115;50.150;8.568;2022-09-13T16:03:35;10.70;;;5.60;;
14078;SDS011;7115;50.150;8.568;2022-09-13T16:06:01;9.90;;;5.67;;
14078;SDS011;7115;50.150;8.568;2022-09-13T16:08:28;9.43;;;5.67;;
14078;SDS011;7115;50.150;8.568;2022-09-13T16:10:55;8.57;;;5.87;;
14078;SDS011;7115;50.150;8.568;2022-09-13T16:13:22;9.67;;;6.53;;
14078;SDS011;7115;50.150;8.568;2022-09-13T16:15:49;8.43;;;5.97;;
14078;SDS011;7115;50.150;8.568;2022-09-13T16:18:22;8.93;;;6.47;;
14078;SDS011;7115;50.150;8.568;2022-09-13T16:20:49;8.80;;;6.63;;
14078;SDS011;7115;50.150;8.568;2022-09-13T16:23:16;16.13;;;10.03;;
14078;SDS011;7115;50.150;8.568;2022-09-13T16:25:43;8.27;;;6.53;;
14078;SDS011;7115;50.150;8.568;2022-09-13T16:28:16;9.57;;;7.23;;
14078;SDS011;7115;50.150;8.568;2022-09-13T16:30:46;9.03;;;6.60;;
14078;SDS011;7115;50.150;8.568;2022-09-13T16:33:13;12.80;;;6.47;;
14078;SDS011;7115;50.150;8.568;2022-09-13T16:35:40;10.73;;;6.90;;
14078;SDS011;7115;50.150;8.568;2022-09-13T16:38:10;8.67;;;6.80;;
14078;SDS011;7115;50.150;8.568;2022-09-13T16:40:38;11.50;;;6.37;;
14078;SDS011;7115;50.150;8.568;2022-09-13T16:43:06;11.27;;;6.57;;
14078;SDS011;7115;50.150;8.568;2022-09-13T16:45:33;11.70;;;6.63;;
14078;SDS011;7115;50.150;8.568;2022-09-13T16:48:03;9.30;;;6.40;;
14078;SDS011;7115;50.150;8.568;2022-09-13T16:50:30;7.53;;;5.70;;
14078;SDS011;7115;50.150;8.568;2022-09-13T16:53:00;8.73;;;5.73;;
14078;SDS011;7115;50.150;8.568;2022-09-13T16:55:27;12.47;;;6.40;;
14078;SDS011;7115;50.150;8.568;2022-09-13T16:57:54;7.60;;;6.20;;
14078;SDS011;7115;50.150;8.568;2022-09-13T17:00:21;10.23;;;6.40;;
14078;SDS011;7115;50.150;8.568;2022-09-13T17:02:49;10.77;;;6.67;;
14078;SDS011;7115;50.150;8.568;2022-09-13T17:05:16;8.37;;;5.40;;
14078;SDS011;7115;50.150;8.568;2022-09-13T17:07:43;8.90;;;5.90;;
14078;SDS011;7115;50.150;8.568;2022-09-13T17:10:10;8.13;;;5.70;;
14078;SDS011;7115;50.150;8.568;2022-09-13T17:12:38;7.53;;;5.70;;
14078;SDS011;7115;50.150;8.568;2022-09-13T17:15:06;11.43;;;7.07;;
14078;SDS011;7115;50.150;8.568;2022-09-13T17:17:34;12.00;;;7.33;;
14078;SDS011;7115;50.150;8.568;2022-09-13T17:20:05;11.07;;;6.63;;
14078;SDS011;7115;50.150;8.568;2022-09-13T17:22:38;11.00;;;6.93;;
14078;SDS011;7115;50.150;8.568;2022-09-13T17:25:06;9.20;;;7.17;;
14078;SDS011;7115;50.150;8.568;2022-09-13T17:27:33;9.77;;;7.70;;
14078;SDS011;7115;50.150;8.568;2022-09-13T17:30:00;13.23;;;7.40;;
14078;SDS011;7115;50.150;8.568;2022-09-13T17:32:27;8.83;;;6.97;;
14078;SDS011;7115;50.150;8.568;2022-09-13T17:34:54;11.30;;;7.97;;
14078;SDS011;7115;50.150;8.568;2022-09-13T17:37:21;14.60;;;7.20;;
14078;SDS011;7115;50.150;8.568;2022-09-13T17:39:48;11.57;;;7.00;;
14078;SDS011;7115;50.150;8.568;2022-09-13T17:42:15;11.23;;;7.03;;
14078;SDS011;7115;50.150;8.568;2022-09-13T17:44:48;10.17;;;6.87;;
14078;SDS011;7115;50.150;8.568;2022-09-13T17:47:15;11.63;;;7.27;;
14078;SDS011;7115;50.150;8.568;2022-09-13T17:49:41;11.00;;;7.37;;
14078;SDS011;7115;50.150;8.568;2022-09-13T17:52:08;13.20;;;7.97;;
14078;SDS011;7115;50.150;8.568;2022-09-13T17:54:35;21.33;;;13.50;;
14078;SDS011;7115;50.150;8.568;2022-09-13T17:57:02;9.73;;;8.43;;
14078;SDS011;7115;50.150;8.568;2022-09-13T17:59:29;15.33;;;8.67;;
14078;SDS011;7115;50.150;8.568;2022-09-13T18:01:57;12.83;;;8.17;;
14078;SDS011;7115;50.150;8.568;2022-09-13T18:04:26;12.40;;;8.20;;
14078;SDS011;7115;50.150;8.568;2022-09-13T18:06:53;11.07;;;8.43;;
14078;SDS011;7115;50.150;8.568;2022-09-13T18:09:20;15.77;;;8.53;;
14078;SDS011;7115;50.150;8.568;2022-09-13T18:11:47;11.50;;;8.67;;
14078;SDS011;7115;50.150;8.568;2022-09-13T18:14:16;12.83;;;8.80;;
14078;SDS011;7115;50.150;8.568;2022-09-13T18:16:44;11.63;;;8.37;;
14078;SDS011;7115;50.150;8.568;2022-09-13T18:19:11;15.13;;;9.23;;
14078;SDS011;7115;50.150;8.568;2022-09-13T18:21:38;11.43;;;8.40;;
14078;SDS011;7115;50.150;8.568;2022-09-13T18:24:06;12.97;;;8.87;;
14078;SDS011;7115;50.150;8.568;2022-09-13T18:26:33;14.60;;;8.43;;
14078;SDS011;7115;50.150;8.568;2022-09-13T18:29:01;10.27;;;8.37;;
14078;SDS011;7115;50.150;8.568;2022-09-13T18:31:32;17.43;;;8.97;;
14078;SDS011;7115;50.150;8.568;2022-09-13T18:34:01;12.70;;;9.07;;
14078;SDS011;7115;50.150;8.568;2022-09-13T18:36:33;15.03;;;9.40;;
14078;SDS011;7115;50.150;8.568;2022-09-13T18:39:01;10.63;;;8.00;;
14078;SDS011;7115;50.150;8.568;2022-09-13T18:41:33;13.73;;;9.10;;
14078;SDS011;7115;50.150;8.568;2022-09-13T18:44:10;13.07;;;9.83;;
14078;SDS011;7115;50.150;8.568;2022-09-13T18:46:37;19.27;;;12.07;;
14078;SDS011;7115;50.150;8.568;2022-09-13T18:49:05;13.70;;;10.20;;
14078;SDS011;7115;50.150;8.568;2022-09-13T18:51:39;12.97;;;9.47;;
14078;SDS011;7115;50.150;8.568;2022-09-13T18:54:12;14.50;;;9.53;;
14078;SDS011;7115;50.150;8.568;2022-09-13T18:56:41;12.03;;;8.63;;
14078;SDS011;7115;50.150;8.568;2022-09-13T18:59:08;11.07;;;7.80;;
14078;SDS011;7115;50.150;8.568;2022-09-13T19:01:37;10.97;;;9.03;;
14078;SDS011;7115;50.150;8.568;2022-09-13T19:06:40;10.77;;;7.47;;
14078;SDS011;7115;50.150;8.568;2022-09-13T19:09:08;9.00;;;7.17;;
14078;SDS011;7115;50.150;8.568;2022-09-13T19:11:37;14.50;;;8.00;;
14078;SDS011;7115;50.150;8.568;2022-09-13T19:14:15;10.43;;;8.47;;
14078;SDS011;7115;50.150;8.568;2022-09-13T19:16:43;11.43;;;7.70;;
14078;SDS011;7115;50.150;8.568;2022-09-13T19:19:11;14.03;;;8.53;;
14078;SDS011;7115;50.150;8.568;2022-09-13T19:21:37;14.00;;;8.73;;